Choccolocco, Alabama
Current Conditions -  °F | °C
As of 8:53 AM on Thursday 18 Dec 2014 (Local Time) from KANB Reporting Station
Overcast Overcast  
Wind Chill: 36°   Ceiling: 9500
Heat Index: 39°   Visibility: 10mi
Dew Point: 33°   Wind: 5mph
Humidity: 79%   Direction: 60°ENE
Pressure: 30.22"   Gusts: NA
Location:  33.66°N, 85.7°W
Report Text: KANB 181453Z AUTO 06004KT 10SM FEW075 OVC095 04/01 A3022 RMK AO2 SLP245 T00390006 51002
Loading
Personal Weather Stations






























Interactive Weather Map New forecast layout! Learn more

10-Day Weather Forecast

Advertisements
Track Severe Weather on mobile